Time;durP1;ratioP1;P1;durP2;ratioP2;P2;SDS_P1;SDS_P2;PMS_P1;PMS_P2;Temp;Humidity;BMP_temperature;BMP_pressure;BME280_temperature;BME280_humidity;BME280_pressure;Samples;Min_cycle;Max_cycle;Signal;HPM_P1;HPM_P2
2022/10/13 00:01:00;;;;;;;9.80;4.17;;;9.80;99.90;;;;;;5081478;28;20600;-61
2022/10/13 00:03:27;;;;;;;7.93;5.20;;;9.80;99.90;;;;;;5081127;28;20446;-59
2022/10/13 00:05:55;;;;;;;11.77;4.20;;;9.80;99.90;;;;;;5081230;28;20476;-60
2022/10/13 00:08:24;;;;;;;10.93;3.73;;;9.80;99.90;;;;;;5080962;28;20442;-62
2022/10/13 00:10:52;;;;;;;9.40;3.23;;;9.80;99.90;;;;;;5080747;28;20542;-60
2022/10/13 00:13:22;;;;;;;5.47;4.27;;;9.80;99.90;;;;;;5080986;28;20549;-59
2022/10/13 00:15:49;;;;;;;4.90;3.80;;;9.80;99.90;;;;;;5081621;28;20442;-62
2022/10/13 00:18:16;;;;;;;7.37;3.60;;;9.80;99.90;;;;;;5081562;28;20462;-60
2022/10/13 00:20:45;;;;;;;9.50;4.23;;;9.80;99.90;;;;;;5081462;28;20482;-61
2022/10/13 00:23:13;;;;;;;8.73;4.50;;;9.80;99.90;;;;;;5080843;28;20442;-61
2022/10/13 00:25:45;;;;;;;6.83;3.47;;;9.80;99.90;;;;;;5081529;28;20457;-57
2022/10/13 00:28:16;;;;;;;5.87;5.27;;;9.80;99.90;;;;;;5081208;28;20442;-60
2022/10/13 00:30:43;;;;;;;5.83;3.47;;;9.80;99.90;;;;;;5080870;28;20462;-60
2022/10/13 00:33:11;;;;;;;7.60;4.63;;;9.70;99.90;;;;;;5081037;28;20456;-60
2022/10/13 00:35:41;;;;;;;8.27;3.90;;;9.70;99.90;;;;;;5080931;28;20450;-60
2022/10/13 00:38:08;;;;;;;7.00;3.70;;;9.70;99.90;;;;;;5081014;28;20442;-60
2022/10/13 00:40:46;;;;;;;4.63;3.27;;;9.70;99.90;;;;;;5080605;28;20478;-61
2022/10/13 00:43:18;;;;;;;5.50;3.20;;;9.60;99.90;;;;;;5080985;28;20549;-61
2022/10/13 00:45:45;;;;;;;6.00;3.90;;;9.60;99.90;;;;;;5081732;28;20549;-60
2022/10/13 00:48:13;;;;;;;4.83;3.50;;;9.60;99.90;;;;;;5080587;28;20442;-60
2022/10/13 00:50:42;;;;;;;10.47;4.67;;;9.60;99.90;;;;;;5080944;28;20437;-61
2022/10/13 00:53:11;;;;;;;12.33;4.10;;;9.60;99.90;;;;;;5080484;28;20442;-61
2022/10/13 00:55:42;;;;;;;5.70;3.20;;;9.60;99.90;;;;;;5081180;28;20492;-61
2022/10/13 00:58:14;;;;;;;9.53;3.63;;;9.60;99.90;;;;;;5080947;28;20437;-60
2022/10/13 01:00:44;;;;;;;7.23;4.00;;;9.50;99.90;;;;;;5080369;28;20525;-61
2022/10/13 01:03:11;;;;;;;4.63;3.47;;;9.50;99.90;;;;;;5080244;28;20465;-60
2022/10/13 01:05:39;;;;;;;7.00;4.03;;;9.50;99.90;;;;;;5081619;28;20450;-60
2022/10/13 01:08:07;;;;;;;5.80;3.57;;;9.50;99.90;;;;;;5083346;28;20457;-63
2022/10/13 01:10:52;;;;;;;7.07;4.83;;;9.40;99.90;;;;;;5081207;28;20465;-60
2022/10/13 01:13:26;;;;;;;5.50;3.90;;;9.40;99.90;;;;;;5080746;28;20577;-61
2022/10/13 01:16:00;;;;;;;9.90;3.27;;;9.40;99.90;;;;;;5080610;28;20430;-61
2022/10/13 01:18:33;;;;;;;5.00;3.77;;;9.40;99.90;;;;;;5080561;28;20437;-59
2022/10/13 01:21:18;;;;;;;9.70;3.90;;;9.30;99.90;;;;;;5080814;28;20470;-57
2022/10/13 01:24:16;;;;;;;5.80;3.47;;;9.30;99.90;;;;;;5080411;28;20430;-63
2022/10/13 01:27:11;;;;;;;3.33;2.77;;;9.40;99.90;;;;;;5080480;28;20466;-61
2022/10/13 01:30:14;;;;;;;10.27;4.20;;;9.30;99.90;;;;;;5080220;28;20435;-61
2022/10/13 01:33:11;;;;;;;6.53;3.80;;;9.30;99.90;;;;;;5047627;28;20481;-60
2022/10/13 01:35:55;;;;;;;7.10;3.17;;;9.30;99.90;;;;;;5076186;28;20450;-62
2022/10/13 01:38:29;;;;;;;7.37;3.97;;;9.20;99.90;;;;;;5080454;28;20558;-61
2022/10/13 01:41:04;;;;;;;5.30;3.50;;;9.20;99.90;;;;;;5080197;28;20465;-61
2022/10/13 01:43:36;;;;;;;7.63;3.47;;;9.20;99.90;;;;;;5080182;28;20493;-61
2022/10/13 01:46:07;;;;;;;6.47;3.00;;;9.20;99.90;;;;;;5080741;28;20430;-60
2022/10/13 01:48:36;;;;;;;3.53;2.93;;;9.20;99.90;;;;;;5080757;28;20458;-61
2022/10/13 01:51:03;;;;;;;16.83;4.00;;;9.20;99.90;;;;;;5080305;28;20439;-60
2022/10/13 01:53:33;;;;;;;5.97;3.97;;;9.20;99.90;;;;;;5079879;28;20446;-60
2022/10/13 01:56:01;;;;;;;9.33;4.23;;;9.20;99.90;;;;;;5079829;28;20458;-61
2022/10/13 01:58:32;;;;;;;6.07;4.30;;;9.10;99.90;;;;;;5080117;28;20446;-60
2022/10/13 02:01:14;;;;;;;6.30;3.23;;;9.10;99.90;;;;;;5079510;28;20470;-61
2022/10/13 02:03:52;;;;;;;8.87;4.97;;;9.20;99.90;;;;;;5079907;28;20426;-60
2022/10/13 02:06:23;;;;;;;17.07;3.60;;;9.20;99.90;;;;;;5079765;28;20950;-59
2022/10/13 02:09:01;;;;;;;8.60;4.23;;;9.20;99.90;;;;;;5079528;28;20513;-61
2022/10/13 02:11:29;;;;;;;6.50;3.97;;;9.20;99.90;;;;;;5079415;28;20423;-60
2022/10/13 02:14:01;;;;;;;7.00;4.30;;;9.20;99.90;;;;;;5079682;28;20798;-60
2022/10/13 02:16:50;;;;;;;8.90;3.70;;;9.30;99.90;;;;;;5079494;28;20438;-59
2022/10/13 02:19:18;;;;;;;8.83;3.80;;;9.40;99.90;;;;;;5079355;28;20427;-60
2022/10/13 02:21:47;;;;;;;6.37;3.83;;;9.40;99.90;;;;;;5079000;28;20482;-59
2022/10/13 02:24:18;;;;;;;11.20;4.33;;;9.40;99.90;;;;;;5079655;28;20438;-60
2022/10/13 02:26:45;;;;;;;5.57;3.90;;;9.30;99.90;;;;;;5079300;28;20565;-62
2022/10/13 02:29:17;;;;;;;8.00;4.37;;;9.30;99.90;;;;;;5079456;28;20453;-62
2022/10/13 02:31:49;;;;;;;5.17;3.33;;;9.30;99.90;;;;;;5079215;28;20929;-60
2022/10/13 02:34:16;;;;;;;7.50;3.97;;;9.30;99.90;;;;;;5079032;28;20441;-62
2022/10/13 02:36:46;;;;;;;6.77;3.50;;;9.20;99.90;;;;;;5079403;28;20456;-62
2022/10/13 02:39:13;;;;;;;3.83;3.10;;;9.20;99.90;;;;;;5078794;28;20474;-61
2022/10/13 02:41:42;;;;;;;8.47;4.07;;;9.20;99.90;;;;;;5078965;28;20482;-59
2022/10/13 02:44:09;;;;;;;5.10;3.20;;;9.10;99.90;;;;;;5077848;28;20477;-60
2022/10/13 02:46:36;;;;;;;6.03;3.33;;;9.20;99.90;;;;;;5079139;28;20462;-61
2022/10/13 02:49:04;;;;;;;13.90;4.93;;;9.10;99.90;;;;;;5079124;28;20442;-60
2022/10/13 02:51:31;;;;;;;5.13;3.63;;;9.10;99.90;;;;;;5078700;28;20466;-60
2022/10/13 02:54:04;;;;;;;7.50;4.53;;;9.10;99.90;;;;;;5079119;28;20446;-59
2022/10/13 02:56:33;;;;;;;10.73;3.90;;;9.00;99.90;;;;;;5079047;28;20476;-62
2022/10/13 02:59:02;;;;;;;4.73;3.40;;;9.00;99.90;;;;;;5078833;28;20772;-61
2022/10/13 03:01:29;;;;;;;7.10;3.73;;;9.00;99.90;;;;;;5078818;28;20486;-59
2022/10/13 03:03:56;;;;;;;4.93;3.57;;;8.90;99.90;;;;;;5078992;28;20470;-60
2022/10/13 03:06:24;;;;;;;14.03;4.63;;;8.90;99.90;;;;;;5078753;28;20453;-60
2022/10/13 03:08:53;;;;;;;4.83;3.60;;;8.90;99.90;;;;;;5078498;28;20480;-60
2022/10/13 03:11:20;;;;;;;5.47;3.23;;;8.90;99.90;;;;;;5078837;28;20453;-61
2022/10/13 03:13:47;;;;;;;4.20;3.80;;;8.80;99.90;;;;;;5078655;28;20452;-59
2022/10/13 03:16:14;;;;;;;9.23;4.23;;;8.80;99.90;;;;;;5077898;28;20533;-60
2022/10/13 03:18:44;;;;;;;7.37;3.70;;;8.80;99.90;;;;;;5077904;28;20942;-59
2022/10/13 03:21:11;;;;;;;10.43;4.17;;;8.80;99.90;;;;;;5078735;28;20493;-59
2022/10/13 03:23:40;;;;;;;6.77;3.93;;;8.80;99.90;;;;;;5078173;28;20447;-59
2022/10/13 03:26:07;;;;;;;8.87;5.37;;;8.80;99.90;;;;;;5078738;28;20450;-60
2022/10/13 03:28:33;;;;;;;7.60;3.90;;;8.80;99.90;;;;;;5077964;28;20557;-61
2022/10/13 03:31:01;;;;;;;10.30;4.47;;;8.80;99.90;;;;;;5078434;28;20435;-61
2022/10/13 03:33:28;;;;;;;10.27;4.90;;;8.80;99.90;;;;;;5077851;28;20473;-60
2022/10/13 03:36:01;;;;;;;18.20;4.40;;;8.80;99.90;;;;;;5078673;28;20614;-60
2022/10/13 03:38:28;;;;;;;6.97;4.17;;;8.80;99.90;;;;;;5078190;28;20859;-60
2022/10/13 03:40:57;;;;;;;6.03;3.40;;;8.80;99.90;;;;;;5077736;28;20442;-60
2022/10/13 03:43:24;;;;;;;8.20;3.20;;;8.80;99.90;;;;;;5077682;28;20457;-61
2022/10/13 03:46:01;;;;;;;5.03;3.37;;;8.70;99.90;;;;;;5078167;28;20478;-60
2022/10/13 03:48:29;;;;;;;7.27;4.20;;;8.70;99.90;;;;;;5078576;28;20430;-61
2022/10/13 03:50:59;;;;;;;8.90;3.97;;;8.70;99.90;;;;;;5078928;28;20466;-61
2022/10/13 03:53:30;;;;;;;7.90;3.70;;;8.70;99.90;;;;;;5079604;28;20442;-62
2022/10/13 03:56:09;;;;;;;7.70;4.00;;;8.70;99.90;;;;;;5078478;28;20533;-61
2022/10/13 03:58:36;;;;;;;8.70;4.13;;;8.70;99.90;;;;;;5078398;28;20466;-60
2022/10/13 04:01:08;;;;;;;4.33;3.20;;;8.70;99.90;;;;;;5078333;28;20442;-60
2022/10/13 04:03:35;;;;;;;4.67;4.00;;;8.70;99.90;;;;;;5078596;28;20470;-56
2022/10/13 04:06:03;;;;;;;6.40;3.43;;;8.60;99.90;;;;;;5078077;28;20542;-56
2022/10/13 04:08:31;;;;;;;12.80;6.10;;;8.60;99.90;;;;;;5078056;28;20442;-57
2022/10/13 04:11:03;;;;;;;4.53;3.43;;;8.60;99.90;;;;;;5078621;28;20442;-62
2022/10/13 04:13:33;;;;;;;7.17;3.57;;;8.70;99.90;;;;;;5078698;28;20498;-60
2022/10/13 04:16:02;;;;;;;8.87;4.80;;;8.70;99.90;;;;;;5078730;28;20480;-58
2022/10/13 04:18:29;;;;;;;5.70;4.13;;;8.70;99.90;;;;;;5078518;28;20511;-60
2022/10/13 04:20:59;;;;;;;8.37;3.97;;;8.70;99.90;;;;;;5077940;28;20453;-61
2022/10/13 04:23:27;;;;;;;8.77;4.17;;;8.80;99.90;;;;;;5077540;28;20484;-60
2022/10/13 04:25:55;;;;;;;7.47;3.93;;;8.80;99.90;;;;;;5078110;28;20446;-60
2022/10/13 04:28:25;;;;;;;7.53;4.30;;;8.80;99.90;;;;;;5078252;28;20846;-62
2022/10/13 04:30:51;;;;;;;6.20;3.50;;;8.80;99.90;;;;;;5077360;28;20457;-59
2022/10/13 04:33:18;;;;;;;6.40;3.87;;;8.80;99.90;;;;;;5076729;28;20442;-60
2022/10/13 04:35:45;;;;;;;9.13;4.17;;;8.80;99.90;;;;;;5077094;28;20446;-58
2022/10/13 04:38:12;;;;;;;9.50;4.03;;;8.80;99.90;;;;;;5077374;28;20457;-60
2022/10/13 04:40:39;;;;;;;5.03;3.13;;;8.80;99.90;;;;;;5078226;28;20458;-60
2022/10/13 04:43:05;;;;;;;9.33;3.80;;;8.90;99.90;;;;;;5077493;28;20486;-61
2022/10/13 04:45:33;;;;;;;6.80;4.40;;;8.90;99.90;;;;;;5080487;28;20476;-62
2022/10/13 04:48:00;;;;;;;9.43;3.87;;;8.80;99.90;;;;;;5081391;28;20435;-61
2022/10/13 04:50:28;;;;;;;5.70;3.73;;;8.90;99.90;;;;;;5080898;28;20433;-61
2022/10/13 04:52:55;;;;;;;8.80;3.73;;;8.80;99.90;;;;;;5081362;28;20435;-62
2022/10/13 04:55:21;;;;;;;6.17;3.57;;;8.90;99.90;;;;;;5081496;28;20446;-61
2022/10/13 04:57:51;;;;;;;9.60;4.30;;;8.90;99.90;;;;;;5081276;28;20923;-59
2022/10/13 05:00:18;;;;;;;5.53;4.53;;;8.90;99.90;;;;;;5081067;28;20442;-62
2022/10/13 05:02:46;;;;;;;12.20;3.70;;;9.00;99.90;;;;;;5080413;28;20490;-59
2022/10/13 05:05:13;;;;;;;6.03;3.90;;;9.00;99.90;;;;;;5080858;28;20484;-62
2022/10/13 05:07:40;;;;;;;9.23;4.60;;;9.00;99.90;;;;;;5081004;28;20769;-61
2022/10/13 05:10:07;;;;;;;10.63;4.57;;;9.10;99.90;;;;;;5080834;28;20467;-60
2022/10/13 05:12:34;;;;;;;9.07;4.50;;;9.10;99.90;;;;;;5080477;28;20445;-61
2022/10/13 05:15:01;;;;;;;11.93;3.50;;;9.00;99.90;;;;;;5080486;28;20458;-62
2022/10/13 05:17:30;;;;;;;9.13;3.30;;;9.10;99.90;;;;;;5080368;28;20454;-61
2022/10/13 05:20:00;;;;;;;7.47;4.07;;;9.00;99.90;;;;;;5080183;28;20474;-61
2022/10/13 05:22:28;;;;;;;9.50;4.27;;;9.00;99.90;;;;;;5079994;28;20489;-61
2022/10/13 05:24:55;;;;;;;7.00;4.53;;;9.00;99.90;;;;;;5080240;28;20470;-61
2022/10/13 05:27:22;;;;;;;4.40;4.00;;;9.10;99.90;;;;;;5080567;28;20506;-61
2022/10/13 05:29:50;;;;;;;5.83;4.20;;;9.10;99.90;;;;;;5080817;28;20442;-61
2022/10/13 05:32:16;;;;;;;6.33;4.30;;;9.10;99.90;;;;;;5079489;28;20426;-62
2022/10/13 05:34:43;;;;;;;8.90;4.40;;;9.10;99.90;;;;;;5079967;28;20449;-62
2022/10/13 05:37:11;;;;;;;7.47;4.40;;;9.10;99.90;;;;;;5079743;28;20528;-59
2022/10/13 05:39:40;;;;;;;9.20;5.77;;;9.20;99.90;;;;;;5079608;28;20862;-60
2022/10/13 05:42:07;;;;;;;12.30;5.97;;;9.10;99.90;;;;;;5080358;28;20482;-58
2022/10/13 05:44:35;;;;;;;11.03;4.70;;;9.20;99.90;;;;;;5079311;28;20443;-60
2022/10/13 05:47:02;;;;;;;8.63;4.90;;;9.20;99.90;;;;;;5059494;28;20497;-60
2022/10/13 05:49:29;;;;;;;7.90;4.33;;;9.20;99.90;;;;;;5059213;28;20443;-61
2022/10/13 05:51:59;;;;;;;10.40;5.13;;;9.20;99.90;;;;;;5059713;28;20440;-61
2022/10/13 05:54:33;;;;;;;11.23;4.97;;;9.20;99.90;;;;;;5060114;28;20446;-60
2022/10/13 05:57:04;;;;;;;9.87;4.87;;;9.20;99.90;;;;;;5058505;28;20736;-59
2022/10/13 05:59:34;;;;;;;10.90;4.73;;;9.20;99.90;;;;;;5059721;28;20467;-60
2022/10/13 06:02:02;;;;;;;8.70;4.40;;;9.30;99.90;;;;;;5059496;28;20479;-61
2022/10/13 06:04:35;;;;;;;7.67;4.10;;;9.30;99.90;;;;;;5060416;28;20502;-40
2022/10/13 06:07:02;;;;;;;11.30;5.43;;;9.40;99.90;;;;;;5060577;28;20444;-42
2022/10/13 06:09:34;;;;;;;7.93;4.57;;;9.50;99.90;;;;;;5059928;28;20531;-41
2022/10/13 06:12:03;;;;;;;7.73;4.17;;;9.50;99.90;;;;;;5068349;28;20447;-43
2022/10/13 06:14:29;;;;;;;9.70;5.20;;;9.50;99.90;;;;;;5060113;28;20440;-42
2022/10/13 06:16:56;;;;;;;18.53;6.50;;;9.50;99.90;;;;;;5059950;28;20486;-43
2022/10/13 06:19:23;;;;;;;9.40;5.47;;;9.50;99.90;;;;;;5064387;28;20456;-42
2022/10/13 06:21:50;;;;;;;12.63;6.00;;;9.60;99.90;;;;;;5064442;28;20451;-41
2022/10/13 06:24:17;;;;;;;10.67;5.00;;;9.60;99.90;;;;;;5069510;28;20454;-42
2022/10/13 06:26:45;;;;;;;14.40;5.50;;;9.60;99.90;;;;;;5071610;28;20474;-40
2022/10/13 06:29:12;;;;;;;18.87;5.80;;;9.60;99.90;;;;;;5074951;28;20500;-38
2022/10/13 06:31:39;;;;;;;19.93;6.10;;;9.70;99.90;;;;;;5081789;28;20527;-42
2022/10/13 06:34:06;;;;;;;12.00;6.30;;;9.80;99.90;;;;;;5075568;28;20435;-43
2022/10/13 06:36:33;;;;;;;12.20;6.60;;;9.80;99.90;;;;;;5076702;28;20463;-40
2022/10/13 06:38:59;;;;;;;16.50;8.00;;;9.80;99.90;;;;;;5077316;28;20439;-41
2022/10/13 06:41:26;;;;;;;16.37;6.90;;;9.80;99.90;;;;;;5073645;28;20601;-40
2022/10/13 06:43:54;;;;;;;14.10;6.90;;;9.80;99.90;;;;;;5074214;28;20535;-40
2022/10/13 06:46:21;;;;;;;11.30;7.17;;;9.80;99.90;;;;;;5073576;28;20491;-45
2022/10/13 06:48:49;;;;;;;7.83;5.40;;;9.90;99.90;;;;;;5073608;28;20449;-41
2022/10/13 06:51:16;;;;;;;12.03;5.70;;;9.90;99.90;;;;;;5073952;28;20463;-39
2022/10/13 06:53:43;;;;;;;11.50;5.50;;;10.00;99.90;;;;;;5071333;28;20470;-39
2022/10/13 06:56:10;;;;;;;9.53;6.50;;;10.10;99.90;;;;;;5070818;28;20455;-40
2022/10/13 06:58:37;;;;;;;11.37;5.60;;;10.10;99.90;;;;;;5072926;28;20454;-41
2022/10/13 07:01:06;;;;;;;9.60;5.30;;;10.20;99.90;;;;;;5083340;28;20513;-41
2022/10/13 07:03:33;;;;;;;10.97;5.83;;;10.30;99.90;;;;;;5068557;28;20471;-40
2022/10/13 07:06:01;;;;;;;13.53;5.83;;;10.30;99.90;;;;;;5068318;28;20455;-46
2022/10/13 07:08:27;;;;;;;9.90;7.43;;;10.40;99.90;;;;;;5068586;28;20530;-43
2022/10/13 07:10:54;;;;;;;9.73;5.97;;;10.50;99.90;;;;;;5068434;28;20447;-39
2022/10/13 07:13:21;;;;;;;13.23;6.37;;;10.50;99.90;;;;;;5068108;28;20760;-39
2022/10/13 07:15:48;;;;;;;14.50;8.00;;;10.60;99.90;;;;;;5067969;28;20772;-40
2022/10/13 07:18:16;;;;;;;11.20;6.00;;;10.60;99.90;;;;;;5068217;28;20471;-39
2022/10/13 07:20:43;;;;;;;27.43;7.90;;;10.60;99.90;;;;;;5069051;28;20514;-40
2022/10/13 07:23:10;;;;;;;12.63;6.53;;;10.60;99.90;;;;;;5067736;28;20568;-42
2022/10/13 07:25:39;;;;;;;16.73;6.50;;;10.60;99.90;;;;;;5068698;28;20491;-40
2022/10/13 07:28:06;;;;;;;12.43;5.80;;;10.60;99.90;;;;;;5069113;28;20456;-42
2022/10/13 07:30:33;;;;;;;13.10;7.23;;;10.80;99.90;;;;;;5069192;28;20485;-42
2022/10/13 07:33:00;;;;;;;10.43;6.70;;;10.90;99.90;;;;;;5069736;28;20471;-40
2022/10/13 07:35:28;;;;;;;17.27;6.80;;;11.00;99.90;;;;;;5068963;28;20532;-41
2022/10/13 07:37:55;;;;;;;12.93;6.40;;;11.00;99.90;;;;;;5068467;28;20453;-38
2022/10/13 07:40:21;;;;;;;13.07;6.80;;;11.10;99.90;;;;;;5068587;28;20788;-43
2022/10/13 07:42:48;;;;;;;9.30;6.10;;;11.20;99.90;;;;;;5067449;28;20559;-40
2022/10/13 07:45:15;;;;;;;11.77;6.60;;;11.30;99.90;;;;;;5066649;28;20502;-41
2022/10/13 07:47:42;;;;;;;11.53;6.60;;;11.20;99.90;;;;;;5066234;28;20809;-40
2022/10/13 07:50:10;;;;;;;10.43;6.47;;;11.30;99.90;;;;;;5066547;28;20450;-41
2022/10/13 07:52:40;;;;;;;12.83;7.73;;;11.40;99.90;;;;;;5065629;28;20478;-42
2022/10/13 07:55:08;;;;;;;8.03;6.30;;;11.50;99.90;;;;;;5066230;28;20454;-43
2022/10/13 07:57:35;;;;;;;14.33;7.17;;;11.50;99.90;;;;;;5065396;28;20471;-40
2022/10/13 08:00:02;;;;;;;11.50;6.83;;;11.50;99.90;;;;;;5066292;28;20453;-40
2022/10/13 08:02:29;;;;;;;11.63;6.57;;;11.50;99.90;;;;;;5066114;28;20498;-42
2022/10/13 08:04:56;;;;;;;14.57;6.67;;;11.50;99.90;;;;;;5065983;28;20439;-42
2022/10/13 08:07:22;;;;;;;11.10;6.77;;;11.60;99.90;;;;;;5065561;28;20542;-40
2022/10/13 08:09:51;;;;;;;10.10;7.07;;;11.80;99.90;;;;;;5065855;28;21146;-42
2022/10/13 08:12:17;;;;;;;12.23;7.37;;;12.00;99.90;;;;;;5064655;28;20447;-42
2022/10/13 08:14:44;;;;;;;11.97;5.90;;;12.30;99.90;;;;;;5064732;28;20550;-42
2022/10/13 08:17:11;;;;;;;17.63;6.80;;;12.60;99.90;;;;;;5064236;28;20786;-40
2022/10/13 08:19:38;;;;;;;14.20;6.93;;;12.80;99.90;;;;;;5065455;28;20470;-40
2022/10/13 08:22:05;;;;;;;13.40;5.60;;;13.00;99.90;;;;;;5068818;28;20442;-44
2022/10/13 08:24:32;;;;;;;9.90;6.53;;;13.20;99.90;;;;;;5068024;28;20478;-42
2022/10/13 08:27:00;;;;;;;10.30;6.27;;;13.40;99.90;;;;;;5067609;28;20443;-41
2022/10/13 08:29:27;;;;;;;8.80;6.37;;;13.50;99.90;;;;;;5067953;28;20530;-41
2022/10/13 08:31:54;;;;;;;16.67;7.43;;;13.60;99.90;;;;;;5067898;28;20486;-41
2022/10/13 08:34:22;;;;;;;9.63;7.10;;;13.60;99.90;;;;;;5067387;28;20533;-43
2022/10/13 08:36:51;;;;;;;14.90;8.50;;;13.70;99.90;;;;;;5066336;28;20466;-46
2022/10/13 08:39:18;;;;;;;11.80;7.37;;;13.80;99.90;;;;;;5066954;28;20500;-40
2022/10/13 08:41:45;;;;;;;9.93;7.30;;;13.90;99.90;;;;;;5066902;28;20463;-40
2022/10/13 08:44:22;;;;;;;10.70;6.30;;;14.10;99.90;;;;;;5065901;28;20493;-40
2022/10/13 08:46:57;;;;;;;11.03;6.97;;;14.20;99.90;;;;;;5065501;28;20466;-40
2022/10/13 08:49:24;;;;;;;9.90;6.27;;;14.50;99.90;;;;;;5064860;28;20830;-43
2022/10/13 08:51:52;;;;;;;15.30;7.30;;;14.70;99.90;;;;;;5064894;28;20883;-41
2022/10/13 08:54:24;;;;;;;13.10;7.00;;;14.90;99.90;;;;;;5064851;28;20453;-40
2022/10/13 08:56:51;;;;;;;13.77;6.90;;;15.10;99.90;;;;;;5064806;28;20438;-41
2022/10/13 08:59:20;;;;;;;15.03;8.00;;;15.30;99.90;;;;;;5064347;28;20815;-40
2022/10/13 09:01:50;;;;;;;11.37;6.70;;;15.50;99.90;;;;;;5063974;28;20803;-40
2022/10/13 09:04:29;;;;;;;14.30;7.60;;;15.70;99.90;;;;;;5063820;28;20570;-42
2022/10/13 09:07:03;;;;;;;10.23;7.20;;;15.80;99.90;;;;;;5064068;28;20428;-42
2022/10/13 09:09:29;;;;;;;13.43;7.30;;;15.90;99.90;;;;;;5063668;28;20477;-44
2022/10/13 09:12:00;;;;;;;14.03;7.33;;;15.80;99.90;;;;;;5063524;28;20439;-43
2022/10/13 09:14:30;;;;;;;12.60;7.07;;;15.80;99.90;;;;;;5063317;28;20824;-43
2022/10/13 09:17:12;;;;;;;10.73;6.70;;;15.80;99.90;;;;;;5063778;28;20447;-43
2022/10/13 09:19:39;;;;;;;12.07;7.00;;;15.80;99.90;;;;;;5062925;28;20439;-43
2022/10/13 09:22:16;;;;;;;12.20;7.60;;;15.70;99.90;;;;;;5062799;28;20531;-43
2022/10/13 09:24:43;;;;;;;18.20;7.90;;;15.80;99.90;;;;;;5062319;28;20475;-42
2022/10/13 09:27:15;;;;;;;16.43;7.90;;;15.80;99.90;;;;;;5062569;28;20569;-45
2022/10/13 09:29:44;;;;;;;15.90;7.97;;;15.70;99.90;;;;;;5062748;28;20470;-43
2022/10/13 09:32:16;;;;;;;13.60;7.90;;;15.60;99.90;;;;;;5063148;28;20482;-39
2022/10/13 09:34:42;;;;;;;15.73;7.80;;;15.60;99.90;;;;;;5063031;28;20483;-42
2022/10/13 09:37:18;;;;;;;9.47;8.00;;;15.60;99.90;;;;;;5062973;28;20471;-41
2022/10/13 09:39:46;;;;;;;11.53;6.97;;;15.50;99.90;;;;;;5062047;28;20423;-41
2022/10/13 09:42:25;;;;;;;10.47;7.03;;;15.50;99.90;;;;;;5062947;28;20447;-42
2022/10/13 09:45:02;;;;;;;11.77;7.07;;;15.50;99.90;;;;;;5062639;28;20471;-43
2022/10/13 09:47:32;;;;;;;10.60;8.00;;;15.60;99.90;;;;;;5061552;28;20440;-44
2022/10/13 09:50:05;;;;;;;11.97;8.20;;;15.60;99.90;;;;;;5062368;28;20546;-45
2022/10/13 09:52:38;;;;;;;10.27;7.13;;;15.70;99.90;;;;;;5062827;28;20531;-42
2022/10/13 09:55:28;;;;;;;14.10;8.20;;;15.80;99.90;;;;;;5062625;28;20467;-40
2022/10/13 09:57:56;;;;;;;13.00;8.33;;;16.00;99.90;;;;;;5062251;28;20471;-40
2022/10/13 10:00:26;;;;;;;16.87;8.70;;;16.20;99.90;;;;;;5061660;28;20505;-43
2022/10/13 10:02:58;;;;;;;14.10;7.17;;;16.30;99.90;;;;;;5061376;28;20489;-41
2022/10/13 10:05:28;;;;;;;12.50;8.23;;;16.40;99.90;;;;;;5061896;28;20471;-42
2022/10/13 10:08:00;;;;;;;12.17;7.80;;;16.60;99.90;;;;;;5062637;28;20446;-47
2022/10/13 10:10:32;;;;;;;13.97;8.67;;;16.70;99.90;;;;;;5061239;28;20483;-41
2022/10/13 10:12:59;;;;;;;12.80;8.27;;;16.80;99.90;;;;;;5061406;28;20436;-45
2022/10/13 10:15:37;;;;;;;14.80;8.90;;;16.80;99.90;;;;;;5061288;28;20448;-38
2022/10/13 10:18:12;;;;;;;16.27;10.33;;;17.00;99.90;;;;;;5061924;28;20458;-41
2022/10/13 10:20:54;;;;;;;12.27;7.63;;;17.00;99.90;;;;;;5061117;28;20442;-42
2022/10/13 10:23:29;;;;;;;13.37;7.57;;;17.20;99.90;;;;;;5061843;28;20463;-42
2022/10/13 10:25:59;;;;;;;16.53;8.67;;;17.50;99.90;;;;;;5061059;28;20456;-42
2022/10/13 10:28:50;;;;;;;13.87;9.90;;;17.90;99.90;;;;;;5060703;28;20475;-41
2022/10/13 10:31:35;;;;;;;13.40;8.57;;;18.10;99.90;;;;;;5049264;28;20455;-43
2022/10/13 10:34:28;;;;;;;18.77;10.20;;;18.00;99.90;;;;;;5060309;28;20466;-44
2022/10/13 10:37:14;;;;;;;21.47;11.90;;;18.00;99.90;;;;;;5057410;28;20459;-40
2022/10/13 10:39:47;;;;;;;14.00;9.30;;;18.10;99.90;;;;;;5060509;28;20466;-45
2022/10/13 10:42:27;;;;;;;12.50;8.57;;;18.20;99.90;;;;;;5060285;28;20454;-44
2022/10/13 10:44:56;;;;;;;16.63;11.67;;;18.30;99.90;;;;;;5060788;28;20490;-49
2022/10/13 10:47:29;;;;;;;15.07;9.20;;;18.20;99.90;;;;;;5060510;28;20945;-47
2022/10/13 10:50:02;;;;;;;15.33;9.50;;;18.20;99.90;;;;;;5060428;28;20497;-43
2022/10/13 10:52:40;;;;;;;12.87;10.20;;;18.20;99.90;;;;;;5059958;28;20520;-44
2022/10/13 10:55:17;;;;;;;16.93;9.10;;;18.20;99.90;;;;;;5059290;28;20798;-46
2022/10/13 10:57:54;;;;;;;12.37;9.30;;;18.10;99.90;;;;;;5059689;28;20442;-42
2022/10/13 11:00:22;;;;;;;12.60;8.17;;;18.00;99.90;;;;;;5060049;28;20431;-40
2022/10/13 11:03:01;;;;;;;13.80;8.13;;;17.90;99.90;;;;;;5059711;28;20450;-41
2022/10/13 11:05:46;;;;;;;11.93;7.87;;;17.80;99.90;;;;;;5059898;28;20815;-41
2022/10/13 11:08:26;;;;;;;17.83;9.20;;;17.70;99.90;;;;;;5059223;28;20473;-41
2022/10/13 11:11:27;;;;;;;10.93;7.73;;;17.70;99.90;;;;;;5059539;28;20424;-45
2022/10/13 11:13:56;;;;;;;17.20;7.70;;;17.70;99.90;;;;;;5059802;28;20460;-44
2022/10/13 11:16:32;;;;;;;12.17;8.23;;;17.70;99.90;;;;;;5058354;28;20466;-39
2022/10/13 11:19:06;;;;;;;13.47;8.50;;;17.80;99.90;;;;;;5057906;28;20427;-41
2022/10/13 11:22:12;;;;;;;12.67;7.80;;;17.90;99.90;;;;;;5058841;28;20865;-41
2022/10/13 11:25:21;;;;;;;13.03;8.23;;;17.90;99.90;;;;;;5060037;28;20857;-41
2022/10/13 11:27:48;;;;;;;13.50;9.00;;;17.90;99.90;;;;;;5059516;28;20462;-42
2022/10/13 11:30:46;;;;;;;13.10;8.00;;;18.00;99.90;;;;;;5059779;28;20453;-39
2022/10/13 11:33:50;;;;;;;11.33;6.43;;;18.10;99.90;;;;;;5059024;28;20446;-41
2022/10/13 11:36:35;;;;;;;11.00;8.23;;;18.10;99.90;;;;;;5059376;28;20427;-39
2022/10/13 11:39:31;;;;;;;14.27;8.37;;;18.10;99.90;;;;;;5059516;28;20442;-40
2022/10/13 11:42:05;;;;;;;11.47;7.37;;;18.10;99.90;;;;;;5059593;28;20456;-39
2022/10/13 11:44:39;;;;;;;17.33;8.83;;;18.20;99.90;;;;;;5059693;28;20459;-41
2022/10/13 11:47:18;;;;;;;11.70;8.20;;;18.20;99.90;;;;;;5059439;28;20469;-39
2022/10/13 11:50:06;;;;;;;10.60;7.57;;;18.20;99.90;;;;;;5058993;28;20522;-43
2022/10/13 11:53:09;;;;;;;19.80;8.00;;;18.00;99.90;;;;;;5059517;28;20431;-38
2022/10/13 11:55:44;;;;;;;10.80;7.37;;;18.00;99.90;;;;;;5048345;28;20455;-42
2022/10/13 11:58:15;;;;;;;21.20;8.57;;;18.10;99.90;;;;;;5063607;28;20423;-43
2022/10/13 12:00:54;;;;;;;12.37;6.60;;;18.20;99.90;;;;;;5063143;28;20435;-39
2022/10/13 12:03:23;;;;;;;13.10;7.90;;;17.90;99.90;;;;;;5063084;28;20474;-41
2022/10/13 12:05:51;;;;;;;10.73;6.10;;;18.30;99.90;;;;;;5062964;28;20914;-39
2022/10/13 12:08:20;;;;;;;12.40;6.83;;;18.20;99.90;;;;;;5063692;28;20559;-45
2022/10/13 12:10:54;;;;;;;10.03;6.70;;;18.20;99.90;;;;;;5063234;28;20427;-41
2022/10/13 12:13:23;;;;;;;9.93;6.17;;;18.00;99.90;;;;;;5063496;28;20557;-39
2022/10/13 12:15:59;;;;;;;9.13;5.93;;;18.00;99.90;;;;;;5063429;28;20531;-47
2022/10/13 12:18:28;;;;;;;10.47;7.33;;;18.00;99.90;;;;;;5063436;28;20458;-40
2022/10/13 12:20:57;;;;;;;12.00;7.00;;;18.00;99.90;;;;;;5063639;28;20485;-41
2022/10/13 12:23:26;;;;;;;11.50;6.20;;;18.00;99.90;;;;;;5062916;28;20497;-38
2022/10/13 12:25:57;;;;;;;10.57;6.40;;;17.90;99.90;;;;;;5062502;28;20478;-49
2022/10/13 12:28:26;;;;;;;7.73;5.97;;;17.90;99.90;;;;;;5061612;28;20482;-48
2022/10/13 12:30:56;;;;;;;9.23;6.30;;;17.90;99.90;;;;;;5060874;28;20471;-44
2022/10/13 12:33:27;;;;;;;18.63;6.73;;;18.00;99.90;;;;;;5060619;28;20522;-47
2022/10/13 12:35:54;;;;;;;9.10;5.90;;;18.10;99.90;;;;;;5060852;28;20939;-46
2022/10/13 12:38:22;;;;;;;7.00;5.47;;;18.20;99.90;;;;;;5060909;28;20534;-44
2022/10/13 12:40:53;;;;;;;8.30;5.33;;;18.20;99.90;;;;;;5060166;28;20953;-48
2022/10/13 12:43:25;;;;;;;8.80;5.77;;;18.30;99.90;;;;;;5060744;28;20439;-44
2022/10/13 12:45:52;;;;;;;10.60;5.10;;;18.30;99.90;;;;;;5060334;28;20479;-46
2022/10/13 12:48:37;;;;;;;10.73;5.90;;;18.30;99.90;;;;;;5060890;28;20439;-43
2022/10/13 12:51:16;;;;;;;7.13;4.80;;;18.30;99.90;;;;;;5060745;28;20505;-45
2022/10/13 12:53:44;;;;;;;9.40;7.30;;;18.30;99.90;;;;;;5061193;28;20438;-48
2022/10/13 12:56:26;;;;;;;16.87;8.17;;;18.20;99.90;;;;;;5060481;28;20447;-42
2022/10/13 12:58:54;;;;;;;8.20;4.70;;;18.20;99.90;;;;;;5061112;28;20459;-45
2022/10/13 13:01:27;;;;;;;10.00;4.90;;;18.00;99.90;;;;;;5060017;28;20455;-45
2022/10/13 13:03:56;;;;;;;8.33;4.70;;;18.20;99.90;;;;;;5060204;28;20530;-49
2022/10/13 13:06:37;;;;;;;11.80;5.90;;;17.80;99.90;;;;;;5059629;28;20447;-44
2022/10/13 13:09:27;;;;;;;9.33;4.83;;;17.70;99.90;;;;;;5060167;28;20562;-47